createdAt,value
2022-11-10T00:02:44.823Z,74.58
2022-11-10T00:05:48.952Z,74.66
2022-11-10T00:08:53.432Z,75.18
2022-11-10T00:11:57.962Z,75.00
2022-11-10T00:15:20.895Z,75.34
2022-11-10T00:18:24.949Z,75.72
2022-11-10T00:21:28.964Z,75.50
2022-11-10T00:24:33.225Z,76.01
2022-11-10T00:27:37.984Z,75.82
2022-11-10T00:30:46.702Z,75.69
2022-11-10T00:33:51.616Z,75.74
2022-11-10T00:36:55.842Z,75.23
2022-11-10T00:40:00.074Z,75.59
2022-11-10T00:43:04.429Z,74.75
2022-11-10T00:46:08.745Z,75.39
2022-11-10T00:49:13.114Z,75.18
2022-11-10T00:52:17.516Z,75.45
2022-11-10T00:55:21.752Z,75.78
2022-11-10T00:58:26.203Z,75.93
2022-11-10T01:01:30.601Z,75.65
2022-11-10T01:04:34.674Z,76.08
2022-11-10T01:07:39.517Z,76.67
2022-11-10T01:10:43.803Z,76.93
2022-11-10T01:13:50.467Z,76.97
2022-11-10T01:16:54.815Z,77.07
2022-11-10T01:19:59.551Z,76.08
2022-11-10T01:23:03.792Z,75.86
2022-11-10T01:26:08.864Z,75.61
2022-11-10T01:29:13.278Z,76.23
2022-11-10T01:32:17.487Z,75.40
2022-11-10T01:35:22.216Z,75.72
2022-11-10T01:38:31.819Z,75.99
2022-11-10T01:41:36.276Z,75.93
2022-11-10T01:44:42.050Z,75.65
2022-11-10T01:47:46.683Z,75.92
2022-11-10T01:50:51.175Z,75.57
2022-11-10T01:54:09.583Z,75.58
2022-11-10T01:57:15.997Z,75.47
2022-11-10T02:00:21.134Z,75.28
2022-11-10T02:03:37.119Z,75.22
2022-11-10T02:06:43.594Z,75.33
2022-11-10T02:09:48.084Z,75.68
2022-11-10T02:12:52.705Z,76.22
2022-11-10T02:15:57.267Z,76.09
2022-11-10T02:19:23.391Z,76.41
2022-11-10T02:22:27.760Z,76.23
2022-11-10T02:25:32.962Z,76.18
2022-11-10T02:28:38.224Z,76.32
2022-11-10T02:31:42.669Z,76.28
2022-11-10T02:34:46.860Z,76.94
2022-11-10T02:37:51.141Z,77.57
2022-11-10T02:40:55.484Z,77.99
2022-11-10T02:44:00.462Z,78.28
2022-11-10T02:47:05.210Z,78.51
2022-11-10T02:50:09.524Z,77.91
2022-11-10T02:53:13.974Z,78.64
2022-11-10T02:56:18.890Z,78.35
2022-11-10T02:59:23.578Z,78.81
2022-11-10T03:02:32.056Z,78.49
2022-11-10T03:05:36.762Z,78.55
2022-11-10T03:08:41.020Z,78.41
2022-11-10T03:11:45.244Z,78.73
2022-11-10T03:14:49.972Z,78.55
2022-11-10T03:17:55.044Z,78.86
2022-11-10T03:20:59.753Z,78.78
2022-11-10T03:24:04.299Z,79.42
2022-11-10T03:27:08.754Z,79.00
2022-11-10T03:30:13.124Z,79.36
2022-11-10T03:33:18.155Z,79.61
2022-11-10T03:36:22.534Z,79.81
2022-11-10T03:39:26.962Z,79.53
2022-11-10T03:42:31.333Z,79.24
2022-11-10T03:45:35.743Z,79.41
2022-11-10T03:48:39.880Z,79.43
2022-11-10T03:51:44.119Z,80.03
2022-11-10T03:54:48.553Z,79.71
2022-11-10T03:57:52.696Z,79.97
2022-11-10T04:00:57.724Z,79.95
2022-11-10T04:04:01.871Z,79.90
2022-11-10T04:07:24.398Z,79.38
2022-11-10T04:10:28.964Z,79.70
2022-11-10T04:13:51.815Z,79.23
2022-11-10T04:16:56.448Z,79.23
2022-11-10T04:20:02.491Z,79.24
2022-11-10T04:23:25.693Z,79.18
2022-11-10T04:26:30.198Z,78.86
2022-11-10T04:29:34.824Z,78.80
2022-11-10T04:32:38.913Z,78.50
2022-11-10T04:35:43.379Z,78.45
2022-11-10T04:38:49.114Z,78.47
2022-11-10T04:41:54.447Z,78.67
2022-11-10T04:45:01.814Z,78.79
2022-11-10T04:48:06.062Z,79.07
2022-11-10T04:51:11.681Z,79.50
2022-11-10T04:54:16.429Z,79.21
2022-11-10T04:57:20.916Z,79.53
2022-11-10T05:00:25.811Z,79.88
2022-11-10T05:03:30.620Z,79.61
2022-11-10T05:06:34.750Z,80.08
2022-11-10T05:09:39.405Z,80.47
2022-11-10T05:12:43.468Z,80.03
2022-11-10T05:15:47.927Z,80.21
2022-11-10T05:18:54.249Z,80.09
2022-11-10T05:21:58.597Z,80.58
2022-11-10T05:25:03.102Z,80.51
2022-11-10T05:28:09.073Z,80.33
2022-11-10T05:31:13.612Z,80.66
2022-11-10T05:34:18.548Z,80.62
2022-11-10T05:37:23.027Z,80.95
2022-11-10T05:40:27.525Z,80.74
2022-11-10T05:43:31.688Z,81.31
2022-11-10T05:46:36.027Z,80.94
2022-11-10T05:49:40.932Z,80.67
2022-11-10T05:52:50.360Z,81.03
2022-11-10T05:55:54.753Z,80.52
2022-11-10T05:58:58.986Z,80.99
2022-11-10T06:02:03.386Z,81.00
2022-11-10T06:05:07.882Z,80.85
2022-11-10T06:08:12.807Z,81.46
2022-11-10T06:11:17.491Z,81.50
2022-11-10T06:14:22.155Z,81.65
2022-11-10T06:17:26.734Z,81.56
2022-11-10T06:20:31.114Z,81.72
2022-11-10T06:23:35.287Z,81.95
2022-11-10T06:26:39.912Z,81.68
2022-11-10T06:29:44.416Z,82.29
2022-11-10T06:32:49.694Z,82.63
2022-11-10T06:35:54.247Z,82.42
2022-11-10T06:38:58.657Z,82.79
2022-11-10T06:42:03.051Z,82.40
2022-11-10T06:45:07.979Z,83.05
2022-11-10T06:48:16.454Z,82.51
2022-11-10T06:51:21.743Z,83.07
2022-11-10T06:54:25.928Z,83.35
2022-11-10T06:57:30.280Z,83.27
2022-11-10T07:00:35.563Z,83.52
2022-11-10T07:03:58.535Z,83.15
2022-11-10T07:07:11.144Z,83.66
2022-11-10T07:10:16.186Z,83.67
2022-11-10T07:13:23.850Z,83.70
2022-11-10T07:16:30.393Z,83.85
2022-11-10T07:19:35.055Z,83.91
2022-11-10T07:22:39.766Z,83.68
2022-11-10T07:25:45.456Z,84.19
2022-11-10T07:28:53.831Z,83.83
2022-11-10T07:31:58.898Z,83.63
2022-11-10T07:35:03.281Z,83.79
2022-11-10T07:38:17.013Z,84.21
2022-11-10T07:41:22.262Z,83.88
2022-11-10T07:44:27.913Z,84.31
2022-11-10T07:47:32.545Z,84.39
2022-11-10T07:50:37.219Z,84.64
2022-11-10T07:53:42.167Z,84.27
2022-11-10T07:56:47.707Z,84.12
2022-11-10T07:59:56.997Z,84.37
2022-11-10T08:03:10.397Z,83.96
2022-11-10T08:06:15.615Z,83.97
2022-11-10T08:09:20.033Z,83.93
2022-11-10T08:12:27.521Z,83.98
2022-11-10T08:15:34.627Z,84.42
2022-11-10T08:18:39.048Z,84.18
2022-11-10T08:21:43.619Z,84.36
2022-11-10T08:24:48.558Z,84.95
2022-11-10T08:28:08.124Z,84.65
2022-11-10T08:31:12.200Z,84.68
2022-11-10T08:34:16.774Z,84.19
2022-11-10T08:37:21.591Z,84.66
2022-11-10T08:40:29.090Z,84.12
2022-11-10T08:43:33.699Z,84.18
2022-11-10T08:46:38.275Z,84.30
2022-11-10T08:49:42.297Z,84.36
2022-11-10T08:52:46.798Z,84.31
2022-11-10T08:55:53.386Z,84.08
2022-11-10T08:58:57.577Z,83.34
2022-11-10T09:02:02.170Z,82.95
2022-11-10T09:05:07.921Z,83.21
2022-11-10T09:08:13.442Z,82.89
2022-11-10T09:11:18.313Z,82.86
2022-11-10T09:14:23.560Z,82.73
2022-11-10T09:17:28.902Z,83.03
2022-11-10T09:20:35.845Z,82.92
2022-11-10T09:23:41.356Z,82.71
2022-11-10T09:26:47.690Z,82.88
2022-11-10T09:29:52.111Z,82.18
2022-11-10T09:32:58.000Z,82.53
2022-11-10T09:36:02.915Z,82.34
2022-11-10T09:39:07.998Z,82.54
2022-11-10T09:42:41.939Z,82.93
2022-11-10T09:45:48.648Z,82.57
2022-11-10T09:49:36.071Z,82.53
2022-11-10T09:52:41.459Z,82.35
2022-11-10T09:55:51.005Z,81.59
2022-11-10T09:58:55.828Z,81.59
2022-11-10T10:02:15.682Z,81.83
2022-11-10T10:05:47.929Z,82.09
2022-11-10T10:08:55.480Z,81.93
2022-11-10T10:12:25.645Z,81.87
2022-11-10T10:15:45.259Z,81.54
2022-11-10T10:19:11.550Z,81.60
2022-11-10T10:22:32.971Z,81.55
2022-11-10T10:25:39.626Z,81.39
2022-11-10T10:28:46.398Z,81.29
2022-11-10T10:31:52.549Z,81.28
2022-11-10T10:34:57.813Z,81.23
2022-11-10T10:38:04.755Z,81.43
2022-11-10T10:41:29.992Z,81.02
2022-11-10T10:44:34.538Z,80.89
2022-11-10T10:47:39.785Z,80.78
2022-11-10T10:50:46.440Z,79.80
2022-11-10T10:53:50.932Z,79.95
2022-11-10T10:57:23.253Z,80.12
2022-11-10T11:00:29.414Z,79.82
2022-11-10T11:03:42.228Z,80.03
2022-11-10T11:07:19.058Z,80.11
2022-11-10T11:10:33.195Z,79.74
2022-11-10T11:13:38.417Z,79.55
2022-11-10T11:17:00.290Z,79.21
2022-11-10T11:20:13.274Z,78.78
2022-11-10T11:23:29.936Z,78.67
2022-11-10T11:26:47.802Z,78.57
2022-11-10T11:30:06.494Z,78.35
2022-11-10T11:33:36.836Z,78.26
2022-11-10T11:36:44.524Z,78.29
2022-11-10T11:40:15.439Z,78.27
2022-11-10T11:43:35.951Z,77.84
2022-11-10T11:46:49.695Z,77.66
2022-11-10T11:50:24.346Z,77.48
2022-11-10T11:54:05.571Z,77.41
2022-11-10T11:57:39.692Z,76.98
2022-11-10T12:00:50.906Z,76.56
2022-11-10T12:04:10.792Z,76.22
2022-11-10T12:07:24.358Z,75.80
2022-11-10T12:10:52.609Z,75.45
2022-11-10T12:16:58.502Z,75.05
2022-11-10T12:20:28.067Z,74.83
2022-11-10T12:24:06.008Z,74.60
2022-11-10T12:27:28.879Z,74.63
2022-11-10T12:30:36.686Z,74.37
2022-11-10T12:33:50.874Z,74.29
2022-11-10T12:36:58.228Z,74.22
2022-11-10T12:40:12.831Z,74.13
2022-11-10T12:43:25.320Z,73.71
2022-11-10T12:46:30.135Z,73.88
2022-11-10T12:49:39.041Z,73.92
2022-11-10T12:53:15.948Z,73.96
2022-11-10T12:56:31.906Z,73.62
2022-11-10T12:59:39.813Z,73.76
2022-11-10T13:02:46.759Z,72.93
2022-11-10T13:05:57.742Z,72.61
2022-11-10T13:09:03.035Z,72.55
2022-11-10T13:12:10.232Z,72.94
2022-11-10T13:15:39.640Z,72.91
2022-11-10T13:18:52.752Z,73.33
2022-11-10T13:22:00.403Z,72.70
2022-11-10T13:25:49.529Z,72.44
2022-11-10T13:29:02.845Z,73.02
2022-11-10T13:32:07.557Z,72.82
2022-11-10T13:35:30.214Z,72.90
2022-11-10T13:38:37.040Z,72.76
2022-11-10T13:42:06.258Z,72.51
2022-11-10T13:45:37.078Z,73.17
2022-11-10T13:48:47.230Z,73.47
2022-11-10T13:52:10.979Z,73.45
2022-11-10T13:55:27.308Z,73.69
2022-11-10T13:58:34.581Z,73.96
2022-11-10T14:01:41.137Z,73.68
2022-11-10T14:04:46.585Z,73.35
2022-11-10T14:07:52.626Z,73.85
2022-11-10T14:11:03.764Z,73.62
2022-11-10T14:14:24.571Z,73.38
2022-11-10T14:17:34.002Z,73.69
2022-11-10T14:20:44.571Z,73.44
2022-11-10T14:23:54.055Z,73.48
2022-11-10T14:27:05.110Z,73.29
2022-11-10T14:30:21.511Z,73.54
2022-11-10T14:33:27.533Z,73.77
2022-11-10T14:36:32.660Z,73.85
2022-11-10T14:39:37.271Z,74.50
2022-11-10T14:42:41.792Z,74.87
2022-11-10T14:45:51.923Z,75.10
2022-11-10T14:48:58.730Z,75.85
2022-11-10T14:52:03.569Z,77.37
2022-11-10T14:55:20.473Z,78.40
2022-11-10T14:58:31.148Z,79.81
2022-11-10T15:01:39.054Z,80.43
2022-11-10T15:04:46.226Z,80.91
2022-11-10T15:07:56.551Z,81.60
2022-11-10T15:11:01.076Z,81.94
2022-11-10T15:14:05.770Z,82.31
2022-11-10T15:17:14.627Z,82.48
2022-11-10T15:20:29.605Z,82.48
2022-11-10T15:23:37.799Z,82.91
2022-11-10T15:26:42.815Z,82.59
2022-11-10T15:29:48.010Z,83.10
2022-11-10T15:32:54.820Z,82.66
2022-11-10T15:36:25.030Z,82.83
2022-11-10T15:39:30.397Z,83.05
2022-11-10T15:42:35.133Z,83.14
2022-11-10T15:45:40.148Z,82.95
2022-11-10T15:48:48.067Z,82.78
2022-11-10T15:51:57.430Z,82.52
2022-11-10T15:55:02.549Z,82.85
2022-11-10T15:58:19.430Z,83.08
2022-11-10T16:01:24.976Z,82.77
2022-11-10T16:04:29.627Z,83.16
2022-11-10T16:07:34.782Z,83.08
2022-11-10T16:10:41.511Z,83.25
2022-11-10T16:13:46.836Z,83.61
2022-11-10T16:16:51.465Z,83.58
2022-11-10T16:19:55.740Z,83.46
2022-11-10T16:23:00.806Z,83.79
2022-11-10T16:26:07.559Z,83.24
2022-11-10T16:29:15.620Z,83.73
2022-11-10T16:32:20.213Z,83.52
2022-11-10T16:35:25.971Z,83.46
2022-11-10T16:38:32.403Z,83.82
2022-11-10T16:41:37.457Z,83.67
2022-11-10T16:44:42.778Z,83.36
2022-11-10T16:47:50.571Z,83.74
2022-11-10T16:50:58.072Z,84.00
2022-11-10T16:54:02.565Z,84.00
2022-11-10T16:57:12.734Z,84.00
2022-11-10T17:00:18.214Z,83.67
2022-11-10T17:03:35.594Z,83.96
2022-11-10T17:06:40.614Z,83.58
2022-11-10T17:09:45.271Z,83.34
2022-11-10T17:12:49.981Z,83.53
2022-11-10T17:16:05.106Z,83.62
2022-11-10T17:19:17.593Z,83.16
2022-11-10T17:22:23.819Z,83.33
2022-11-10T17:25:32.500Z,83.09
2022-11-10T17:28:37.290Z,83.18
2022-11-10T17:31:42.044Z,83.01
2022-11-10T17:34:46.619Z,83.48
2022-11-10T17:37:55.063Z,83.06
2022-11-10T17:40:59.821Z,83.21
2022-11-10T17:44:04.713Z,83.06
2022-11-10T17:47:09.397Z,83.20
2022-11-10T17:50:15.687Z,82.96
2022-11-10T17:53:23.890Z,83.42
2022-11-10T17:56:29.846Z,83.72
2022-11-10T17:59:34.636Z,83.61
2022-11-10T18:02:39.047Z,84.26
2022-11-10T18:05:44.413Z,84.47
2022-11-10T18:08:50.245Z,84.59
2022-11-10T18:11:56.093Z,84.53
2022-11-10T18:15:01.147Z,84.27
2022-11-10T18:18:06.842Z,84.69
2022-11-10T18:21:12.113Z,84.53
2022-11-10T18:24:16.328Z,84.82
2022-11-10T18:27:21.167Z,84.79
2022-11-10T18:30:25.566Z,84.99
2022-11-10T18:33:30.079Z,85.05
2022-11-10T18:36:34.325Z,85.40
2022-11-10T18:39:38.838Z,85.54
2022-11-10T18:42:43.109Z,85.68
2022-11-10T18:45:51.797Z,85.87
2022-11-10T18:48:56.278Z,86.00
2022-11-10T18:52:00.801Z,86.06
2022-11-10T18:55:06.396Z,85.99
2022-11-10T18:58:11.029Z,85.91
2022-11-10T19:01:16.754Z,85.92
2022-11-10T19:04:21.071Z,85.42
2022-11-10T19:07:25.545Z,85.51
2022-11-10T19:10:29.869Z,85.39
2022-11-10T19:13:34.426Z,84.88
2022-11-10T19:16:39.883Z,85.36
2022-11-10T19:19:46.239Z,85.44
2022-11-10T19:22:51.157Z,85.28
2022-11-10T19:26:25.417Z,85.45
2022-11-10T19:29:31.643Z,85.53
2022-11-10T19:32:37.720Z,85.84
2022-11-10T19:35:43.500Z,85.61
2022-11-10T19:38:48.426Z,85.45
2022-11-10T19:41:54.013Z,85.70
2022-11-10T19:44:58.589Z,85.23
2022-11-10T19:48:08.348Z,85.51
2022-11-10T19:51:17.801Z,85.24
2022-11-10T19:54:23.406Z,84.99
2022-11-10T19:57:28.981Z,84.98
2022-11-10T20:00:34.271Z,84.44
2022-11-10T20:03:40.247Z,84.26
2022-11-10T20:06:45.830Z,83.64
2022-11-10T20:09:51.595Z,83.51
2022-11-10T20:12:56.899Z,82.77
2022-11-10T20:16:07.309Z,82.26
2022-11-10T20:19:13.159Z,82.26
2022-11-10T20:22:19.067Z,82.38
2022-11-10T20:25:24.321Z,82.83
2022-11-10T20:28:30.553Z,82.51
2022-11-10T20:31:37.027Z,82.79
2022-11-10T20:34:41.979Z,82.98
2022-11-10T20:37:47.131Z,82.85
2022-11-10T20:41:05.783Z,83.02
2022-11-10T20:44:11.027Z,83.41
2022-11-10T20:47:15.936Z,83.62
2022-11-10T20:50:24.331Z,83.16
2022-11-10T20:53:29.719Z,83.07
2022-11-10T20:56:34.085Z,83.25
2022-11-10T20:59:38.621Z,83.29
2022-11-10T21:02:43.472Z,82.87
2022-11-10T21:05:56.193Z,82.95
2022-11-10T21:09:03.416Z,82.62
2022-11-10T21:12:31.399Z,82.74
2022-11-10T21:15:40.476Z,82.50
2022-11-10T21:18:44.752Z,82.31
2022-11-10T21:21:51.144Z,82.56
2022-11-10T21:24:58.391Z,82.24
2022-11-10T21:28:05.571Z,81.96
2022-11-10T21:31:13.364Z,82.18
2022-11-10T21:34:21.036Z,81.85
2022-11-10T21:37:26.081Z,82.01
2022-11-10T21:40:32.236Z,82.03
2022-11-10T21:43:40.303Z,81.92
2022-11-10T21:46:46.641Z,81.69
2022-11-10T21:49:51.691Z,82.02
2022-11-10T21:52:56.983Z,82.02
2022-11-10T21:56:07.984Z,82.35
2022-11-10T21:59:14.578Z,82.11
2022-11-10T22:02:19.850Z,82.03
2022-11-10T22:05:24.582Z,82.15
2022-11-10T22:08:29.438Z,82.12
2022-11-10T22:11:52.734Z,82.49
2022-11-10T22:15:15.677Z,82.23
2022-11-10T22:18:38.246Z,82.56
2022-11-10T22:21:44.486Z,82.53
2022-11-10T22:24:48.809Z,82.59
2022-11-10T22:27:53.264Z,82.30
2022-11-10T22:30:58.065Z,82.01
2022-11-10T22:34:02.943Z,82.44
2022-11-10T22:37:07.607Z,82.39
2022-11-10T22:40:31.083Z,82.82
2022-11-10T22:43:54.155Z,82.87
2022-11-10T22:46:58.957Z,82.97
2022-11-10T22:50:04.090Z,82.79
2022-11-10T22:53:11.013Z,82.82
2022-11-10T22:56:16.386Z,82.80
2022-11-10T22:59:21.314Z,82.52
2022-11-10T23:02:31.994Z,83.10
2022-11-10T23:05:37.048Z,82.62
2022-11-10T23:08:41.364Z,83.03
2022-11-10T23:11:45.849Z,82.71
2022-11-10T23:14:50.400Z,82.69
2022-11-10T23:17:55.088Z,82.95
2022-11-10T23:21:04.577Z,82.75
2022-11-10T23:24:08.998Z,82.81
2022-11-10T23:27:18.292Z,83.18
2022-11-10T23:30:26.941Z,83.10
2022-11-10T23:33:42.498Z,83.24
2022-11-10T23:36:53.575Z,83.03
2022-11-10T23:39:58.469Z,82.90
2022-11-10T23:43:02.759Z,82.97
2022-11-10T23:46:08.177Z,83.27
2022-11-10T23:49:12.774Z,83.32
2022-11-10T23:52:17.022Z,83.22
2022-11-10T23:55:21.370Z,83.08
2022-11-10T23:58:26.112Z,83.22
